sensor_id;sensor_type;location;lat;lon;timestamp;P1;durP1;ratioP1;P2;durP2;ratioP2
24617;SDS011;12762;51.730;5.356;2022-12-07T00:01:17;14.37;;;7.63;;
24617;SDS011;12762;51.730;5.356;2022-12-07T00:03:53;12.97;;;7.43;;
24617;SDS011;12762;51.730;5.356;2022-12-07T00:06:23;17.87;;;7.53;;
24617;SDS011;12762;51.730;5.356;2022-12-07T00:08:50;15.17;;;7.70;;
24617;SDS011;12762;51.730;5.356;2022-12-07T00:11:22;12.67;;;7.07;;
24617;SDS011;12762;51.730;5.356;2022-12-07T00:13:54;15.93;;;7.53;;
24617;SDS011;12762;51.730;5.356;2022-12-07T00:16:23;14.63;;;7.27;;
24617;SDS011;12762;51.730;5.356;2022-12-07T00:18:51;15.27;;;7.90;;
24617;SDS011;12762;51.730;5.356;2022-12-07T00:21:19;13.00;;;6.70;;
24617;SDS011;12762;51.730;5.356;2022-12-07T00:23:48;12.83;;;7.50;;
24617;SDS011;12762;51.730;5.356;2022-12-07T00:26:26;17.73;;;8.30;;
24617;SDS011;12762;51.730;5.356;2022-12-07T00:28:57;15.67;;;8.80;;
24617;SDS011;12762;51.730;5.356;2022-12-07T00:31:27;15.93;;;7.63;;
24617;SDS011;12762;51.730;5.356;2022-12-07T00:33:57;14.93;;;8.23;;
24617;SDS011;12762;51.730;5.356;2022-12-07T00:36:25;14.23;;;7.90;;
24617;SDS011;12762;51.730;5.356;2022-12-07T00:38:57;13.13;;;8.03;;
24617;SDS011;12762;51.730;5.356;2022-12-07T00:41:26;18.30;;;7.83;;
24617;SDS011;12762;51.730;5.356;2022-12-07T00:43:54;12.50;;;6.80;;
24617;SDS011;12762;51.730;5.356;2022-12-07T00:46:21;13.17;;;7.67;;
24617;SDS011;12762;51.730;5.356;2022-12-07T00:48:51;12.60;;;7.10;;
24617;SDS011;12762;51.730;5.356;2022-12-07T00:51:20;15.00;;;7.10;;
24617;SDS011;12762;51.730;5.356;2022-12-07T00:53:48;14.13;;;7.50;;
24617;SDS011;12762;51.730;5.356;2022-12-07T00:56:19;13.50;;;7.30;;
24617;SDS011;12762;51.730;5.356;2022-12-07T00:58:54;12.53;;;7.03;;
24617;SDS011;12762;51.730;5.356;2022-12-07T01:01:22;13.47;;;6.50;;
24617;SDS011;12762;51.730;5.356;2022-12-07T01:03:50;14.60;;;7.17;;
24617;SDS011;12762;51.730;5.356;2022-12-07T01:06:18;15.27;;;7.07;;
24617;SDS011;12762;51.730;5.356;2022-12-07T01:08:46;14.73;;;6.90;;
24617;SDS011;12762;51.730;5.356;2022-12-07T01:11:18;16.67;;;7.03;;
24617;SDS011;12762;51.730;5.356;2022-12-07T01:13:49;14.17;;;6.63;;
24617;SDS011;12762;51.730;5.356;2022-12-07T01:16:17;15.00;;;6.90;;
24617;SDS011;12762;51.730;5.356;2022-12-07T01:18:46;17.23;;;7.77;;
24617;SDS011;12762;51.730;5.356;2022-12-07T01:21:16;13.27;;;6.63;;
24617;SDS011;12762;51.730;5.356;2022-12-07T01:23:44;15.47;;;6.20;;
24617;SDS011;12762;51.730;5.356;2022-12-07T01:26:13;12.17;;;5.40;;
24617;SDS011;12762;51.730;5.356;2022-12-07T01:28:42;13.27;;;6.00;;
24617;SDS011;12762;51.730;5.356;2022-12-07T01:31:10;13.40;;;5.43;;
24617;SDS011;12762;51.730;5.356;2022-12-07T01:33:42;10.27;;;4.80;;
24617;SDS011;12762;51.730;5.356;2022-12-07T01:36:15;10.03;;;5.27;;
24617;SDS011;12762;51.730;5.356;2022-12-07T01:38:47;9.37;;;4.40;;
24617;SDS011;12762;51.730;5.356;2022-12-07T01:41:15;14.27;;;4.37;;
24617;SDS011;12762;51.730;5.356;2022-12-07T01:46:51;13.83;;;4.30;;
24617;SDS011;12762;51.730;5.356;2022-12-07T01:49:26;10.90;;;4.20;;
24617;SDS011;12762;51.730;5.356;2022-12-07T01:52:09;9.83;;;4.30;;
24617;SDS011;12762;51.730;5.356;2022-12-07T01:54:46;8.80;;;4.47;;
24617;SDS011;12762;51.730;5.356;2022-12-07T01:57:15;11.13;;;4.60;;
24617;SDS011;12762;51.730;5.356;2022-12-07T01:59:43;7.63;;;4.30;;
24617;SDS011;12762;51.730;5.356;2022-12-07T02:02:22;11.43;;;4.87;;
24617;SDS011;12762;51.730;5.356;2022-12-07T02:04:56;13.67;;;5.50;;
24617;SDS011;12762;51.730;5.356;2022-12-07T02:07:25;12.20;;;4.97;;
24617;SDS011;12762;51.730;5.356;2022-12-07T02:09:53;9.00;;;4.77;;
24617;SDS011;12762;51.730;5.356;2022-12-07T02:12:20;12.97;;;4.80;;
24617;SDS011;12762;51.730;5.356;2022-12-07T02:14:48;10.47;;;4.87;;
24617;SDS011;12762;51.730;5.356;2022-12-07T02:17:28;13.47;;;5.17;;
24617;SDS011;12762;51.730;5.356;2022-12-07T02:20:37;13.53;;;5.43;;
24617;SDS011;12762;51.730;5.356;2022-12-07T02:31:42;15.40;;;5.80;;
24617;SDS011;12762;51.730;5.356;2022-12-07T02:36:52;9.23;;;4.33;;
24617;SDS011;12762;51.730;5.356;2022-12-07T02:39:28;13.57;;;4.93;;
24617;SDS011;12762;51.730;5.356;2022-12-07T02:42:07;11.70;;;4.30;;
24617;SDS011;12762;51.730;5.356;2022-12-07T02:44:40;12.63;;;4.03;;
24617;SDS011;12762;51.730;5.356;2022-12-07T02:47:09;10.33;;;4.00;;
24617;SDS011;12762;51.730;5.356;2022-12-07T02:49:38;10.33;;;3.57;;
24617;SDS011;12762;51.730;5.356;2022-12-07T02:52:09;9.50;;;4.13;;
24617;SDS011;12762;51.730;5.356;2022-12-07T02:54:36;10.00;;;3.87;;
24617;SDS011;12762;51.730;5.356;2022-12-07T02:57:15;11.37;;;4.20;;
24617;SDS011;12762;51.730;5.356;2022-12-07T03:08:00;9.87;;;3.50;;
24617;SDS011;12762;51.730;5.356;2022-12-07T03:16:07;9.40;;;3.83;;
24617;SDS011;12762;51.730;5.356;2022-12-07T03:18:43;8.03;;;3.60;;
24617;SDS011;12762;51.730;5.356;2022-12-07T03:24:39;9.37;;;3.33;;
24617;SDS011;12762;51.730;5.356;2022-12-07T03:27:08;13.43;;;3.30;;
24617;SDS011;12762;51.730;5.356;2022-12-07T03:30:02;7.60;;;2.77;;
24617;SDS011;12762;51.730;5.356;2022-12-07T03:32:37;8.27;;;2.83;;
24617;SDS011;12762;51.730;5.356;2022-12-07T03:35:15;8.00;;;2.80;;
24617;SDS011;12762;51.730;5.356;2022-12-07T03:37:57;8.17;;;2.80;;
24617;SDS011;12762;51.730;5.356;2022-12-07T03:40:35;13.43;;;3.00;;
24617;SDS011;12762;51.730;5.356;2022-12-07T03:43:16;7.93;;;2.83;;
24617;SDS011;12762;51.730;5.356;2022-12-07T03:45:46;7.60;;;3.20;;
24617;SDS011;12762;51.730;5.356;2022-12-07T03:56:26;9.47;;;2.73;;
24617;SDS011;12762;51.730;5.356;2022-12-07T03:58:55;6.87;;;2.43;;
24617;SDS011;12762;51.730;5.356;2022-12-07T04:01:23;7.30;;;2.90;;
24617;SDS011;12762;51.730;5.356;2022-12-07T04:03:50;5.03;;;1.90;;
24617;SDS011;12762;51.730;5.356;2022-12-07T04:06:17;9.20;;;2.70;;
24617;SDS011;12762;51.730;5.356;2022-12-07T04:08:45;6.23;;;2.20;;
24617;SDS011;12762;51.730;5.356;2022-12-07T04:11:11;13.67;;;2.40;;
24617;SDS011;12762;51.730;5.356;2022-12-07T04:13:38;7.00;;;2.40;;
24617;SDS011;12762;51.730;5.356;2022-12-07T04:16:24;5.07;;;2.13;;
24617;SDS011;12762;51.730;5.356;2022-12-07T04:18:51;8.83;;;2.73;;
24617;SDS011;12762;51.730;5.356;2022-12-07T04:21:18;7.43;;;2.33;;
24617;SDS011;12762;51.730;5.356;2022-12-07T04:23:44;5.57;;;2.10;;
24617;SDS011;12762;51.730;5.356;2022-12-07T04:26:11;8.17;;;2.10;;
24617;SDS011;12762;51.730;5.356;2022-12-07T04:28:38;5.13;;;1.77;;
24617;SDS011;12762;51.730;5.356;2022-12-07T04:31:05;8.47;;;2.90;;
24617;SDS011;12762;51.730;5.356;2022-12-07T04:33:32;6.47;;;2.37;;
24617;SDS011;12762;51.730;5.356;2022-12-07T04:35:59;7.87;;;2.97;;
24617;SDS011;12762;51.730;5.356;2022-12-07T04:38:25;8.07;;;2.63;;
24617;SDS011;12762;51.730;5.356;2022-12-07T04:40:52;6.43;;;2.97;;
24617;SDS011;12762;51.730;5.356;2022-12-07T04:43:22;8.20;;;2.43;;
24617;SDS011;12762;51.730;5.356;2022-12-07T04:45:48;5.07;;;2.60;;
24617;SDS011;12762;51.730;5.356;2022-12-07T04:48:16;6.10;;;2.03;;
24617;SDS011;12762;51.730;5.356;2022-12-07T04:50:49;6.60;;;2.23;;
24617;SDS011;12762;51.730;5.356;2022-12-07T04:53:15;8.37;;;1.80;;
24617;SDS011;12762;51.730;5.356;2022-12-07T04:55:43;7.50;;;2.00;;
24617;SDS011;12762;51.730;5.356;2022-12-07T04:58:11;7.80;;;2.00;;
24617;SDS011;12762;51.730;5.356;2022-12-07T05:00:38;7.00;;;1.40;;
24617;SDS011;12762;51.730;5.356;2022-12-07T05:03:05;6.87;;;1.50;;
24617;SDS011;12762;51.730;5.356;2022-12-07T05:05:32;7.27;;;1.80;;
24617;SDS011;12762;51.730;5.356;2022-12-07T05:07:59;5.53;;;1.90;;
24617;SDS011;12762;51.730;5.356;2022-12-07T05:10:26;4.87;;;1.30;;
24617;SDS011;12762;51.730;5.356;2022-12-07T05:12:53;11.30;;;1.77;;
24617;SDS011;12762;51.730;5.356;2022-12-07T05:15:20;7.90;;;1.63;;
24617;SDS011;12762;51.730;5.356;2022-12-07T05:17:46;6.70;;;1.70;;
24617;SDS011;12762;51.730;5.356;2022-12-07T05:20:13;8.03;;;1.80;;
24617;SDS011;12762;51.730;5.356;2022-12-07T05:22:40;4.73;;;1.70;;
24617;SDS011;12762;51.730;5.356;2022-12-07T05:25:07;8.47;;;1.63;;
24617;SDS011;12762;51.730;5.356;2022-12-07T05:27:37;7.67;;;2.30;;
24617;SDS011;12762;51.730;5.356;2022-12-07T05:30:07;5.77;;;1.67;;
24617;SDS011;12762;51.730;5.356;2022-12-07T05:32:34;6.00;;;1.80;;
24617;SDS011;12762;51.730;5.356;2022-12-07T05:35:01;9.17;;;1.57;;
24617;SDS011;12762;51.730;5.356;2022-12-07T05:37:28;7.53;;;1.60;;
24617;SDS011;12762;51.730;5.356;2022-12-07T05:39:54;9.90;;;1.93;;
24617;SDS011;12762;51.730;5.356;2022-12-07T05:42:24;7.97;;;1.70;;
24617;SDS011;12762;51.730;5.356;2022-12-07T05:44:51;9.73;;;2.03;;
24617;SDS011;12762;51.730;5.356;2022-12-07T05:47:18;5.60;;;1.43;;
24617;SDS011;12762;51.730;5.356;2022-12-07T05:49:45;7.10;;;1.70;;
24617;SDS011;12762;51.730;5.356;2022-12-07T05:52:12;6.13;;;1.80;;
24617;SDS011;12762;51.730;5.356;2022-12-07T05:54:38;5.60;;;1.43;;
24617;SDS011;12762;51.730;5.356;2022-12-07T05:57:05;7.77;;;1.73;;
24617;SDS011;12762;51.730;5.356;2022-12-07T05:59:32;5.67;;;1.73;;
24617;SDS011;12762;51.730;5.356;2022-12-07T06:02:00;6.63;;;1.70;;
24617;SDS011;12762;51.730;5.356;2022-12-07T06:04:41;8.07;;;1.50;;
24617;SDS011;12762;51.730;5.356;2022-12-07T06:07:10;4.37;;;1.43;;
24617;SDS011;12762;51.730;5.356;2022-12-07T06:09:39;6.33;;;1.90;;
24617;SDS011;12762;51.730;5.356;2022-12-07T06:12:06;7.50;;;2.37;;
24617;SDS011;12762;51.730;5.356;2022-12-07T06:14:55;6.20;;;1.67;;
24617;SDS011;12762;51.730;5.356;2022-12-07T06:17:22;6.60;;;1.83;;
24617;SDS011;12762;51.730;5.356;2022-12-07T06:19:48;6.87;;;2.87;;
24617;SDS011;12762;51.730;5.356;2022-12-07T06:22:15;9.53;;;2.23;;
24617;SDS011;12762;51.730;5.356;2022-12-07T06:24:43;6.73;;;2.23;;
24617;SDS011;12762;51.730;5.356;2022-12-07T06:27:10;11.20;;;2.47;;
24617;SDS011;12762;51.730;5.356;2022-12-07T06:29:37;5.20;;;2.67;;
24617;SDS011;12762;51.730;5.356;2022-12-07T06:32:04;7.93;;;2.67;;
24617;SDS011;12762;51.730;5.356;2022-12-07T06:34:31;6.43;;;2.47;;
24617;SDS011;12762;51.730;5.356;2022-12-07T06:36:58;8.37;;;2.70;;
24617;SDS011;12762;51.730;5.356;2022-12-07T06:39:26;8.03;;;2.90;;
24617;SDS011;12762;51.730;5.356;2022-12-07T06:41:54;7.50;;;2.27;;
24617;SDS011;12762;51.730;5.356;2022-12-07T06:44:24;9.33;;;2.83;;
24617;SDS011;12762;51.730;5.356;2022-12-07T06:46:51;7.77;;;2.53;;
24617;SDS011;12762;51.730;5.356;2022-12-07T06:49:38;7.13;;;2.20;;
24617;SDS011;12762;51.730;5.356;2022-12-07T06:52:04;7.40;;;2.57;;
24617;SDS011;12762;51.730;5.356;2022-12-07T06:54:31;8.67;;;2.63;;
24617;SDS011;12762;51.730;5.356;2022-12-07T06:56:58;7.73;;;2.43;;
24617;SDS011;12762;51.730;5.356;2022-12-07T06:59:25;8.20;;;2.17;;
24617;SDS011;12762;51.730;5.356;2022-12-07T07:01:52;7.80;;;2.60;;
24617;SDS011;12762;51.730;5.356;2022-12-07T07:04:22;7.50;;;2.83;;
24617;SDS011;12762;51.730;5.356;2022-12-07T07:06:49;8.47;;;2.60;;
24617;SDS011;12762;51.730;5.356;2022-12-07T07:09:24;8.80;;;2.93;;
24617;SDS011;12762;51.730;5.356;2022-12-07T07:11:52;8.00;;;3.20;;
24617;SDS011;12762;51.730;5.356;2022-12-07T07:14:19;11.70;;;3.40;;
24617;SDS011;12762;51.730;5.356;2022-12-07T07:16:47;6.77;;;3.20;;
24617;SDS011;12762;51.730;5.356;2022-12-07T07:19:14;8.27;;;3.50;;
24617;SDS011;12762;51.730;5.356;2022-12-07T07:21:41;5.73;;;3.30;;
24617;SDS011;12762;51.730;5.356;2022-12-07T07:24:07;6.87;;;3.30;;
24617;SDS011;12762;51.730;5.356;2022-12-07T07:26:34;9.70;;;3.20;;
24617;SDS011;12762;51.730;5.356;2022-12-07T07:29:01;7.87;;;3.23;;
24617;SDS011;12762;51.730;5.356;2022-12-07T07:31:28;11.47;;;3.30;;
24617;SDS011;12762;51.730;5.356;2022-12-07T07:33:58;8.03;;;3.10;;
24617;SDS011;12762;51.730;5.356;2022-12-07T07:36:28;7.47;;;3.20;;
24617;SDS011;12762;51.730;5.356;2022-12-07T07:38:54;9.80;;;3.73;;
24617;SDS011;12762;51.730;5.356;2022-12-07T07:41:21;10.40;;;3.53;;
24617;SDS011;12762;51.730;5.356;2022-12-07T07:43:48;10.00;;;3.40;;
24617;SDS011;12762;51.730;5.356;2022-12-07T07:46:18;10.73;;;3.50;;
24617;SDS011;12762;51.730;5.356;2022-12-07T07:48:45;11.77;;;3.50;;
24617;SDS011;12762;51.730;5.356;2022-12-07T07:51:14;6.67;;;3.47;;
24617;SDS011;12762;51.730;5.356;2022-12-07T07:53:41;9.93;;;3.40;;
24617;SDS011;12762;51.730;5.356;2022-12-07T07:56:08;9.13;;;4.20;;
24617;SDS011;12762;51.730;5.356;2022-12-07T07:58:34;16.00;;;4.33;;
24617;SDS011;12762;51.730;5.356;2022-12-07T08:01:05;9.77;;;3.70;;
24617;SDS011;12762;51.730;5.356;2022-12-07T08:03:33;8.57;;;4.07;;
24617;SDS011;12762;51.730;5.356;2022-12-07T08:06:01;14.80;;;4.40;;
24617;SDS011;12762;51.730;5.356;2022-12-07T08:08:31;11.47;;;3.93;;
24617;SDS011;12762;51.730;5.356;2022-12-07T08:10:58;13.47;;;3.50;;
24617;SDS011;12762;51.730;5.356;2022-12-07T08:13:27;11.27;;;4.17;;
24617;SDS011;12762;51.730;5.356;2022-12-07T08:15:56;7.73;;;3.53;;
24617;SDS011;12762;51.730;5.356;2022-12-07T08:18:24;11.80;;;4.30;;
24617;SDS011;12762;51.730;5.356;2022-12-07T08:20:51;9.53;;;3.87;;
24617;SDS011;12762;51.730;5.356;2022-12-07T08:23:18;10.80;;;3.90;;
24617;SDS011;12762;51.730;5.356;2022-12-07T08:25:44;8.37;;;3.67;;
24617;SDS011;12762;51.730;5.356;2022-12-07T08:28:11;8.37;;;3.50;;
24617;SDS011;12762;51.730;5.356;2022-12-07T08:30:38;6.80;;;3.27;;
24617;SDS011;12762;51.730;5.356;2022-12-07T08:33:05;9.80;;;4.00;;
24617;SDS011;12762;51.730;5.356;2022-12-07T08:35:35;11.00;;;4.13;;
24617;SDS011;12762;51.730;5.356;2022-12-07T08:38:02;11.07;;;3.57;;
24617;SDS011;12762;51.730;5.356;2022-12-07T08:40:29;8.70;;;3.83;;
24617;SDS011;12762;51.730;5.356;2022-12-07T08:42:56;7.37;;;3.33;;
24617;SDS011;12762;51.730;5.356;2022-12-07T08:45:23;10.20;;;3.20;;
24617;SDS011;12762;51.730;5.356;2022-12-07T08:48:03;8.03;;;2.80;;
24617;SDS011;12762;51.730;5.356;2022-12-07T08:50:34;9.17;;;3.20;;
24617;SDS011;12762;51.730;5.356;2022-12-07T08:53:02;7.93;;;3.57;;
24617;SDS011;12762;51.730;5.356;2022-12-07T08:55:30;15.07;;;3.67;;
24617;SDS011;12762;51.730;5.356;2022-12-07T08:57:59;6.63;;;2.67;;
24617;SDS011;12762;51.730;5.356;2022-12-07T09:00:26;10.47;;;2.80;;
24617;SDS011;12762;51.730;5.356;2022-12-07T09:02:54;6.60;;;2.40;;
24617;SDS011;12762;51.730;5.356;2022-12-07T09:05:20;11.07;;;2.40;;
24617;SDS011;12762;51.730;5.356;2022-12-07T09:07:48;12.23;;;2.53;;
24617;SDS011;12762;51.730;5.356;2022-12-07T09:10:17;7.03;;;2.13;;
24617;SDS011;12762;51.730;5.356;2022-12-07T09:12:44;6.50;;;1.97;;
24617;SDS011;12762;51.730;5.356;2022-12-07T09:15:11;8.90;;;1.87;;
24617;SDS011;12762;51.730;5.356;2022-12-07T09:17:41;8.97;;;1.80;;
24617;SDS011;12762;51.730;5.356;2022-12-07T09:20:07;6.53;;;1.63;;
24617;SDS011;12762;51.730;5.356;2022-12-07T09:22:35;6.63;;;1.70;;
24617;SDS011;12762;51.730;5.356;2022-12-07T09:25:03;13.17;;;1.77;;
24617;SDS011;12762;51.730;5.356;2022-12-07T09:27:30;5.27;;;1.50;;
24617;SDS011;12762;51.730;5.356;2022-12-07T09:29:57;10.67;;;2.03;;
24617;SDS011;12762;51.730;5.356;2022-12-07T09:32:24;10.67;;;1.77;;
24617;SDS011;12762;51.730;5.356;2022-12-07T09:34:54;5.43;;;1.50;;
24617;SDS011;12762;51.730;5.356;2022-12-07T09:37:21;7.93;;;1.70;;
24617;SDS011;12762;51.730;5.356;2022-12-07T09:39:48;10.73;;;2.20;;
24617;SDS011;12762;51.730;5.356;2022-12-07T09:42:36;11.50;;;2.20;;
24617;SDS011;12762;51.730;5.356;2022-12-07T09:45:06;8.00;;;2.53;;
24617;SDS011;12762;51.730;5.356;2022-12-07T09:47:39;7.80;;;2.13;;
24617;SDS011;12762;51.730;5.356;2022-12-07T09:50:10;8.70;;;2.17;;
24617;SDS011;12762;51.730;5.356;2022-12-07T09:52:40;7.87;;;1.70;;
24617;SDS011;12762;51.730;5.356;2022-12-07T09:55:12;9.90;;;1.93;;
24617;SDS011;12762;51.730;5.356;2022-12-07T09:57:40;6.33;;;1.63;;
24617;SDS011;12762;51.730;5.356;2022-12-07T10:00:15;10.43;;;1.57;;
24617;SDS011;12762;51.730;5.356;2022-12-07T10:02:46;5.80;;;1.77;;
24617;SDS011;12762;51.730;5.356;2022-12-07T10:05:18;5.73;;;1.77;;
24617;SDS011;12762;51.730;5.356;2022-12-07T10:07:54;6.83;;;2.37;;
24617;SDS011;12762;51.730;5.356;2022-12-07T10:10:25;8.90;;;2.13;;
24617;SDS011;12762;51.730;5.356;2022-12-07T10:13:09;8.13;;;2.27;;
24617;SDS011;12762;51.730;5.356;2022-12-07T10:18:18;6.23;;;1.90;;
24617;SDS011;12762;51.730;5.356;2022-12-07T10:21:01;4.83;;;1.93;;
24617;SDS011;12762;51.730;5.356;2022-12-07T10:24:05;5.40;;;1.93;;
24617;SDS011;12762;51.730;5.356;2022-12-07T10:29:22;5.23;;;1.53;;
24617;SDS011;12762;51.730;5.356;2022-12-07T10:32:03;5.87;;;1.80;;
24617;SDS011;12762;51.730;5.356;2022-12-07T10:34:34;6.70;;;1.90;;
24617;SDS011;12762;51.730;5.356;2022-12-07T10:39:50;8.57;;;2.03;;
24617;SDS011;12762;51.730;5.356;2022-12-07T10:42:25;5.77;;;2.37;;
24617;SDS011;12762;51.730;5.356;2022-12-07T10:48:02;8.07;;;2.17;;
24617;SDS011;12762;51.730;5.356;2022-12-07T10:51:11;6.57;;;1.77;;
24617;SDS011;12762;51.730;5.356;2022-12-07T10:53:54;4.33;;;1.90;;
24617;SDS011;12762;51.730;5.356;2022-12-07T10:56:45;4.80;;;2.07;;
24617;SDS011;12762;51.730;5.356;2022-12-07T11:05:02;5.50;;;2.07;;
24617;SDS011;12762;51.730;5.356;2022-12-07T11:08:05;6.43;;;1.40;;
24617;SDS011;12762;51.730;5.356;2022-12-07T11:10:52;4.17;;;1.70;;
24617;SDS011;12762;51.730;5.356;2022-12-07T11:16:27;3.53;;;1.80;;
24617;SDS011;12762;51.730;5.356;2022-12-07T11:22:01;9.00;;;1.73;;
24617;SDS011;12762;51.730;5.356;2022-12-07T11:27:41;8.87;;;1.97;;
24617;SDS011;12762;51.730;5.356;2022-12-07T11:30:36;6.77;;;1.80;;
24617;SDS011;12762;51.730;5.356;2022-12-07T11:33:25;6.07;;;1.73;;
24617;SDS011;12762;51.730;5.356;2022-12-07T11:36:00;6.03;;;1.97;;
24617;SDS011;12762;51.730;5.356;2022-12-07T11:38:46;5.23;;;1.87;;
24617;SDS011;12762;51.730;5.356;2022-12-07T11:41:26;9.57;;;2.17;;
24617;SDS011;12762;51.730;5.356;2022-12-07T11:43:59;14.00;;;2.37;;
24617;SDS011;12762;51.730;5.356;2022-12-07T11:46:42;3.97;;;1.83;;
24617;SDS011;12762;51.730;5.356;2022-12-07T11:51:52;7.50;;;2.30;;
24617;SDS011;12762;51.730;5.356;2022-12-07T11:54:23;9.80;;;2.10;;
24617;SDS011;12762;51.730;5.356;2022-12-07T11:56:59;7.33;;;1.83;;
24617;SDS011;12762;51.730;5.356;2022-12-07T11:59:32;4.80;;;1.97;;
24617;SDS011;12762;51.730;5.356;2022-12-07T12:02:14;10.37;;;2.20;;
24617;SDS011;12762;51.730;5.356;2022-12-07T12:04:55;7.07;;;2.00;;
24617;SDS011;12762;51.730;5.356;2022-12-07T12:07:29;3.67;;;1.80;;
24617;SDS011;12762;51.730;5.356;2022-12-07T12:13:37;11.30;;;2.00;;
24617;SDS011;12762;51.730;5.356;2022-12-07T12:19:25;9.40;;;2.30;;
24617;SDS011;12762;51.730;5.356;2022-12-07T12:22:06;6.10;;;1.97;;
24617;SDS011;12762;51.730;5.356;2022-12-07T12:24:40;9.17;;;2.17;;
24617;SDS011;12762;51.730;5.356;2022-12-07T12:27:14;8.27;;;2.37;;
24617;SDS011;12762;51.730;5.356;2022-12-07T12:30:00;7.10;;;1.57;;
24617;SDS011;12762;51.730;5.356;2022-12-07T12:32:39;6.77;;;1.70;;
24617;SDS011;12762;51.730;5.356;2022-12-07T12:38:24;7.20;;;1.53;;
24617;SDS011;12762;51.730;5.356;2022-12-07T12:40:51;10.60;;;1.80;;
24617;SDS011;12762;51.730;5.356;2022-12-07T12:49:30;4.60;;;1.43;;
24617;SDS011;12762;51.730;5.356;2022-12-07T12:52:49;6.17;;;1.23;;
24617;SDS011;12762;51.730;5.356;2022-12-07T12:55:00;3.57;;;0.90;;
24617;SDS011;12762;51.730;5.356;2022-12-07T12:57:33;4.80;;;1.33;;
24617;SDS011;12762;51.730;5.356;2022-12-07T13:00:14;9.27;;;1.30;;
24617;SDS011;12762;51.730;5.356;2022-12-07T13:02:52;4.13;;;1.00;;
24617;SDS011;12762;51.730;5.356;2022-12-07T13:05:21;4.67;;;0.80;;
24617;SDS011;12762;51.730;5.356;2022-12-07T13:07:55;2.83;;;0.70;;
24617;SDS011;12762;51.730;5.356;2022-12-07T13:15:38;4.37;;;0.93;;
24617;SDS011;12762;51.730;5.356;2022-12-07T13:31:36;4.53;;;0.77;;
24617;SDS011;12762;51.730;5.356;2022-12-07T13:34:39;4.23;;;0.70;;
24617;SDS011;12762;51.730;5.356;2022-12-07T13:37:02;4.43;;;0.60;;
24617;SDS011;12762;51.730;5.356;2022-12-07T13:39:32;2.40;;;0.53;;
24617;SDS011;12762;51.730;5.356;2022-12-07T13:42:06;4.13;;;0.70;;
24617;SDS011;12762;51.730;5.356;2022-12-07T13:44:41;4.23;;;0.80;;
24617;SDS011;12762;51.730;5.356;2022-12-07T13:49:55;4.83;;;0.73;;
24617;SDS011;12762;51.730;5.356;2022-12-07T13:52:24;5.77;;;1.40;;
24617;SDS011;12762;51.730;5.356;2022-12-07T13:57:41;5.50;;;1.00;;
24617;SDS011;12762;51.730;5.356;2022-12-07T14:00:19;6.33;;;1.30;;
24617;SDS011;12762;51.730;5.356;2022-12-07T14:05:40;9.80;;;1.23;;
24617;SDS011;12762;51.730;5.356;2022-12-07T14:10:53;4.13;;;1.07;;
24617;SDS011;12762;51.730;5.356;2022-12-07T14:13:30;4.53;;;1.07;;
24617;SDS011;12762;51.730;5.356;2022-12-07T14:15:58;2.20;;;0.90;;
24617;SDS011;12762;51.730;5.356;2022-12-07T14:18:47;2.73;;;0.80;;
24617;SDS011;12762;51.730;5.356;2022-12-07T14:23:39;2.83;;;0.87;;
24617;SDS011;12762;51.730;5.356;2022-12-07T14:26:18;3.00;;;0.73;;
24617;SDS011;12762;51.730;5.356;2022-12-07T14:28:47;4.03;;;0.70;;
24617;SDS011;12762;51.730;5.356;2022-12-07T14:31:18;1.33;;;0.60;;
24617;SDS011;12762;51.730;5.356;2022-12-07T14:33:58;3.57;;;0.50;;
24617;SDS011;12762;51.730;5.356;2022-12-07T14:36:25;2.13;;;0.27;;
24617;SDS011;12762;51.730;5.356;2022-12-07T14:38:52;2.33;;;0.47;;
24617;SDS011;12762;51.730;5.356;2022-12-07T14:41:22;4.83;;;0.63;;
24617;SDS011;12762;51.730;5.356;2022-12-07T14:44:10;1.27;;;0.37;;
24617;SDS011;12762;51.730;5.356;2022-12-07T14:46:58;1.87;;;0.40;;
24617;SDS011;12762;51.730;5.356;2022-12-07T14:49:45;1.43;;;0.70;;
24617;SDS011;12762;51.730;5.356;2022-12-07T14:52:28;2.37;;;1.00;;
24617;SDS011;12762;51.730;5.356;2022-12-07T14:55:20;1.97;;;0.40;;
24617;SDS011;12762;51.730;5.356;2022-12-07T14:57:53;5.27;;;0.97;;
24617;SDS011;12762;51.730;5.356;2022-12-07T15:00:24;3.17;;;0.70;;
24617;SDS011;12762;51.730;5.356;2022-12-07T15:02:52;2.33;;;0.67;;
24617;SDS011;12762;51.730;5.356;2022-12-07T15:05:22;1.97;;;0.67;;
24617;SDS011;12762;51.730;5.356;2022-12-07T15:07:50;3.70;;;0.80;;
24617;SDS011;12762;51.730;5.356;2022-12-07T15:10:24;3.17;;;0.70;;
24617;SDS011;12762;51.730;5.356;2022-12-07T15:12:58;5.40;;;0.80;;
24617;SDS011;12762;51.730;5.356;2022-12-07T15:15:46;1.23;;;0.60;;
24617;SDS011;12762;51.730;5.356;2022-12-07T15:18:14;2.53;;;0.50;;
24617;SDS011;12762;51.730;5.356;2022-12-07T15:20:41;1.87;;;0.67;;
24617;SDS011;12762;51.730;5.356;2022-12-07T15:23:14;1.57;;;0.70;;
24617;SDS011;12762;51.730;5.356;2022-12-07T15:25:42;1.50;;;0.60;;
24617;SDS011;12762;51.730;5.356;2022-12-07T15:28:09;1.53;;;0.80;;
24617;SDS011;12762;51.730;5.356;2022-12-07T15:30:37;2.03;;;0.60;;
24617;SDS011;12762;51.730;5.356;2022-12-07T15:33:07;1.70;;;0.73;;
24617;SDS011;12762;51.730;5.356;2022-12-07T15:35:38;1.87;;;0.60;;
24617;SDS011;12762;51.730;5.356;2022-12-07T15:38:11;2.23;;;0.67;;
24617;SDS011;12762;51.730;5.356;2022-12-07T15:40:38;2.67;;;0.60;;
24617;SDS011;12762;51.730;5.356;2022-12-07T15:43:05;1.40;;;0.30;;
24617;SDS011;12762;51.730;5.356;2022-12-07T15:45:53;3.03;;;0.60;;
24617;SDS011;12762;51.730;5.356;2022-12-07T15:48:19;2.50;;;0.60;;
24617;SDS011;12762;51.730;5.356;2022-12-07T15:51:01;3.43;;;0.43;;
24617;SDS011;12762;51.730;5.356;2022-12-07T15:53:29;1.13;;;0.53;;
24617;SDS011;12762;51.730;5.356;2022-12-07T15:55:56;7.83;;;0.73;;
24617;SDS011;12762;51.730;5.356;2022-12-07T15:58:23;3.60;;;0.67;;
24617;SDS011;12762;51.730;5.356;2022-12-07T16:00:49;1.87;;;0.80;;
24617;SDS011;12762;51.730;5.356;2022-12-07T16:03:16;3.90;;;0.90;;
24617;SDS011;12762;51.730;5.356;2022-12-07T16:05:50;1.33;;;0.80;;
24617;SDS011;12762;51.730;5.356;2022-12-07T16:08:18;3.27;;;1.07;;
24617;SDS011;12762;51.730;5.356;2022-12-07T16:10:47;5.70;;;1.13;;
24617;SDS011;12762;51.730;5.356;2022-12-07T16:13:14;5.67;;;1.27;;
24617;SDS011;12762;51.730;5.356;2022-12-07T16:15:40;6.80;;;1.50;;
24617;SDS011;12762;51.730;5.356;2022-12-07T16:18:09;3.37;;;1.40;;
24617;SDS011;12762;51.730;5.356;2022-12-07T16:20:36;4.33;;;1.53;;
24617;SDS011;12762;51.730;5.356;2022-12-07T16:23:02;3.17;;;1.27;;
24617;SDS011;12762;51.730;5.356;2022-12-07T16:25:33;11.33;;;2.07;;
24617;SDS011;12762;51.730;5.356;2022-12-07T16:28:00;3.33;;;1.30;;
24617;SDS011;12762;51.730;5.356;2022-12-07T16:30:27;3.13;;;1.80;;
24617;SDS011;12762;51.730;5.356;2022-12-07T16:32:54;5.63;;;1.80;;
24617;SDS011;12762;51.730;5.356;2022-12-07T16:35:27;3.83;;;1.83;;
24617;SDS011;12762;51.730;5.356;2022-12-07T16:37:57;5.57;;;2.20;;
24617;SDS011;12762;51.730;5.356;2022-12-07T16:40:24;5.73;;;2.07;;
24617;SDS011;12762;51.730;5.356;2022-12-07T16:42:51;4.90;;;2.00;;
24617;SDS011;12762;51.730;5.356;2022-12-07T16:45:18;6.67;;;2.07;;
24617;SDS011;12762;51.730;5.356;2022-12-07T16:47:46;4.50;;;2.17;;
24617;SDS011;12762;51.730;5.356;2022-12-07T16:50:14;7.60;;;2.63;;
24617;SDS011;12762;51.730;5.356;2022-12-07T16:52:41;7.07;;;2.30;;
24617;SDS011;12762;51.730;5.356;2022-12-07T16:55:08;4.63;;;2.30;;
24617;SDS011;12762;51.730;5.356;2022-12-07T16:57:35;6.57;;;2.13;;
24617;SDS011;12762;51.730;5.356;2022-12-07T17:00:02;5.10;;;2.33;;
24617;SDS011;12762;51.730;5.356;2022-12-07T17:02:30;6.20;;;3.07;;
24617;SDS011;12762;51.730;5.356;2022-12-07T17:04:59;9.40;;;3.33;;